Warrensburg, Illinois
Current Conditions -  °F | °C
As of 4:54 AM on Friday 31 Oct 2014 (Local Time) from KDEC Reporting Station
Overcast Overcast  
Wind Chill: 40°   Ceiling: 4600
Heat Index: 46°   Visibility: 10mi
Dew Point: 41°   Wind: 14mph
Humidity: 83%   Direction: 320°NW
Pressure: 30.07"   Gusts: NA
Location:  39.93°N, 89.06°W
Report Text: KDEC 310954Z AUTO 32012KT 10SM OVC046 08/05 A3007 RMK AO2 SLP185 T00780050 TSNO
Loading
Personal Weather Stations






























Interactive Weather Map
Tropical Storm Tracking
New forecast layout! Learn more

10-Day Weather Forecast

Advertisements
Track Severe Weather on mobile